sensor_id;sensor_type;location;lat;lon;timestamp;P1;durP1;ratioP1;P2;durP2;ratioP2
46084;SDS011;31823;47.032;8.310;2023-12-29T00:01:29;8.70;;;6.30;;
46084;SDS011;31823;47.032;8.310;2023-12-29T00:03:55;10.50;;;6.55;;
46084;SDS011;31823;47.032;8.310;2023-12-29T00:06:21;9.10;;;6.32;;
46084;SDS011;31823;47.032;8.310;2023-12-29T00:08:47;8.68;;;5.05;;
46084;SDS011;31823;47.032;8.310;2023-12-29T00:11:21;9.18;;;5.00;;
46084;SDS011;31823;47.032;8.310;2023-12-29T00:13:47;7.68;;;5.43;;
46084;SDS011;31823;47.032;8.310;2023-12-29T00:16:14;7.65;;;5.13;;
46084;SDS011;31823;47.032;8.310;2023-12-29T00:18:40;8.82;;;5.50;;
46084;SDS011;31823;47.032;8.310;2023-12-29T00:21:06;6.47;;;4.78;;
46084;SDS011;31823;47.032;8.310;2023-12-29T00:23:32;8.68;;;5.70;;
46084;SDS011;31823;47.032;8.310;2023-12-29T00:25:58;8.45;;;5.90;;
46084;SDS011;31823;47.032;8.310;2023-12-29T00:28:23;6.75;;;5.18;;
46084;SDS011;31823;47.032;8.310;2023-12-29T00:30:49;9.68;;;5.88;;
46084;SDS011;31823;47.032;8.310;2023-12-29T00:33:14;9.82;;;5.57;;
46084;SDS011;31823;47.032;8.310;2023-12-29T00:35:40;7.93;;;5.45;;
46084;SDS011;31823;47.032;8.310;2023-12-29T00:38:06;7.93;;;5.00;;
46084;SDS011;31823;47.032;8.310;2023-12-29T00:40:32;9.85;;;5.72;;
46084;SDS011;31823;47.032;8.310;2023-12-29T00:42:59;9.40;;;5.35;;
46084;SDS011;31823;47.032;8.310;2023-12-29T00:45:25;8.20;;;5.68;;
46084;SDS011;31823;47.032;8.310;2023-12-29T00:47:52;5.95;;;4.93;;
46084;SDS011;31823;47.032;8.310;2023-12-29T00:50:18;6.63;;;4.35;;
46084;SDS011;31823;47.032;8.310;2023-12-29T00:52:43;9.40;;;5.53;;
46084;SDS011;31823;47.032;8.310;2023-12-29T00:55:09;9.30;;;4.72;;
46084;SDS011;31823;47.032;8.310;2023-12-29T00:57:35;7.28;;;4.97;;
46084;SDS011;31823;47.032;8.310;2023-12-29T01:00:00;8.32;;;5.07;;
46084;SDS011;31823;47.032;8.310;2023-12-29T01:02:26;6.68;;;5.07;;
46084;SDS011;31823;47.032;8.310;2023-12-29T01:04:52;7.40;;;4.55;;
46084;SDS011;31823;47.032;8.310;2023-12-29T01:07:17;8.38;;;5.25;;
46084;SDS011;31823;47.032;8.310;2023-12-29T01:09:43;9.98;;;4.80;;
46084;SDS011;31823;47.032;8.310;2023-12-29T01:12:09;7.13;;;4.72;;
46084;SDS011;31823;47.032;8.310;2023-12-29T01:14:34;9.40;;;4.88;;
46084;SDS011;31823;47.032;8.310;2023-12-29T01:17:00;5.50;;;3.90;;
46084;SDS011;31823;47.032;8.310;2023-12-29T01:19:26;5.93;;;3.70;;
46084;SDS011;31823;47.032;8.310;2023-12-29T01:21:52;7.53;;;4.80;;
46084;SDS011;31823;47.032;8.310;2023-12-29T01:24:17;8.88;;;4.10;;
46084;SDS011;31823;47.032;8.310;2023-12-29T01:26:43;8.07;;;4.07;;
46084;SDS011;31823;47.032;8.310;2023-12-29T01:29:08;6.97;;;4.43;;
46084;SDS011;31823;47.032;8.310;2023-12-29T01:31:34;8.65;;;4.65;;
46084;SDS011;31823;47.032;8.310;2023-12-29T01:33:59;9.57;;;4.68;;
46084;SDS011;31823;47.032;8.310;2023-12-29T01:36:25;6.95;;;4.60;;
46084;SDS011;31823;47.032;8.310;2023-12-29T01:38:51;6.60;;;4.43;;
46084;SDS011;31823;47.032;8.310;2023-12-29T01:41:19;6.97;;;4.82;;
46084;SDS011;31823;47.032;8.310;2023-12-29T01:46:23;7.80;;;4.68;;
46084;SDS011;31823;47.032;8.310;2023-12-29T01:48:50;7.50;;;4.97;;
46084;SDS011;31823;47.032;8.310;2023-12-29T01:51:16;6.18;;;4.50;;
46084;SDS011;31823;47.032;8.310;2023-12-29T01:53:44;7.80;;;4.63;;
46084;SDS011;31823;47.032;8.310;2023-12-29T01:56:10;7.10;;;4.30;;
46084;SDS011;31823;47.032;8.310;2023-12-29T01:58:36;6.43;;;4.45;;
46084;SDS011;31823;47.032;8.310;2023-12-29T02:01:02;6.70;;;4.32;;
46084;SDS011;31823;47.032;8.310;2023-12-29T02:03:29;8.70;;;5.13;;
46084;SDS011;31823;47.032;8.310;2023-12-29T02:05:55;6.65;;;4.68;;
46084;SDS011;31823;47.032;8.310;2023-12-29T02:08:22;5.93;;;4.18;;
46084;SDS011;31823;47.032;8.310;2023-12-29T02:10:48;4.70;;;3.65;;
46084;SDS011;31823;47.032;8.310;2023-12-29T02:13:14;5.90;;;4.10;;
46084;SDS011;31823;47.032;8.310;2023-12-29T02:15:40;5.63;;;3.63;;
46084;SDS011;31823;47.032;8.310;2023-12-29T02:18:06;6.05;;;3.80;;
46084;SDS011;31823;47.032;8.310;2023-12-29T02:20:35;6.45;;;4.10;;
46084;SDS011;31823;47.032;8.310;2023-12-29T02:23:01;6.22;;;4.53;;
46084;SDS011;31823;47.032;8.310;2023-12-29T02:25:27;8.27;;;4.50;;
46084;SDS011;31823;47.032;8.310;2023-12-29T02:30:45;7.00;;;4.78;;
46084;SDS011;31823;47.032;8.310;2023-12-29T02:33:19;7.30;;;4.47;;
46084;SDS011;31823;47.032;8.310;2023-12-29T02:35:46;6.07;;;3.88;;
46084;SDS011;31823;47.032;8.310;2023-12-29T02:38:15;6.22;;;4.35;;
46084;SDS011;31823;47.032;8.310;2023-12-29T02:40:40;6.85;;;3.67;;
46084;SDS011;31823;47.032;8.310;2023-12-29T02:43:08;7.95;;;4.57;;
46084;SDS011;31823;47.032;8.310;2023-12-29T02:45:35;9.20;;;5.57;;
46084;SDS011;31823;47.032;8.310;2023-12-29T02:48:01;9.38;;;5.32;;
46084;SDS011;31823;47.032;8.310;2023-12-29T02:50:26;7.00;;;4.40;;
46084;SDS011;31823;47.032;8.310;2023-12-29T02:52:52;6.05;;;3.85;;
46084;SDS011;31823;47.032;8.310;2023-12-29T02:55:18;7.70;;;4.68;;
46084;SDS011;31823;47.032;8.310;2023-12-29T02:57:44;5.68;;;3.92;;
46084;SDS011;31823;47.032;8.310;2023-12-29T03:00:09;8.23;;;4.05;;
46084;SDS011;31823;47.032;8.310;2023-12-29T03:02:35;8.15;;;4.72;;
46084;SDS011;31823;47.032;8.310;2023-12-29T03:05:01;8.90;;;4.68;;
46084;SDS011;31823;47.032;8.310;2023-12-29T03:07:27;8.02;;;4.70;;
46084;SDS011;31823;47.032;8.310;2023-12-29T03:09:53;6.25;;;4.55;;
46084;SDS011;31823;47.032;8.310;2023-12-29T03:12:18;5.97;;;4.20;;
46084;SDS011;31823;47.032;8.310;2023-12-29T03:14:44;5.75;;;4.03;;
46084;SDS011;31823;47.032;8.310;2023-12-29T03:17:11;8.20;;;4.70;;
46084;SDS011;31823;47.032;8.310;2023-12-29T03:19:37;7.30;;;4.80;;
46084;SDS011;31823;47.032;8.310;2023-12-29T03:22:03;7.65;;;4.32;;
46084;SDS011;31823;47.032;8.310;2023-12-29T03:24:29;6.20;;;4.07;;
46084;SDS011;31823;47.032;8.310;2023-12-29T03:26:54;10.50;;;4.82;;
46084;SDS011;31823;47.032;8.310;2023-12-29T03:29:20;14.65;;;4.80;;
46084;SDS011;31823;47.032;8.310;2023-12-29T03:31:46;6.95;;;4.38;;
46084;SDS011;31823;47.032;8.310;2023-12-29T03:34:11;7.75;;;4.30;;
46084;SDS011;31823;47.032;8.310;2023-12-29T03:36:37;5.78;;;4.35;;
46084;SDS011;31823;47.032;8.310;2023-12-29T03:39:02;8.27;;;4.50;;
46084;SDS011;31823;47.032;8.310;2023-12-29T03:41:28;7.75;;;5.18;;
46084;SDS011;31823;47.032;8.310;2023-12-29T03:43:54;7.72;;;4.80;;
46084;SDS011;31823;47.032;8.310;2023-12-29T03:46:21;4.75;;;3.60;;
46084;SDS011;31823;47.032;8.310;2023-12-29T03:48:47;5.57;;;4.45;;
46084;SDS011;31823;47.032;8.310;2023-12-29T03:51:13;9.35;;;5.32;;
46084;SDS011;31823;47.032;8.310;2023-12-29T03:53:40;7.03;;;4.72;;
46084;SDS011;31823;47.032;8.310;2023-12-29T03:56:12;7.68;;;4.13;;
46084;SDS011;31823;47.032;8.310;2023-12-29T03:58:39;5.80;;;3.85;;
46084;SDS011;31823;47.032;8.310;2023-12-29T04:01:09;5.60;;;4.03;;
46084;SDS011;31823;47.032;8.310;2023-12-29T04:03:36;7.55;;;4.55;;
46084;SDS011;31823;47.032;8.310;2023-12-29T04:06:02;5.60;;;3.97;;
46084;SDS011;31823;47.032;8.310;2023-12-29T04:08:27;6.40;;;3.85;;
46084;SDS011;31823;47.032;8.310;2023-12-29T04:10:53;7.55;;;3.90;;
46084;SDS011;31823;47.032;8.310;2023-12-29T04:13:18;6.53;;;4.22;;
46084;SDS011;31823;47.032;8.310;2023-12-29T04:15:44;6.90;;;4.10;;
46084;SDS011;31823;47.032;8.310;2023-12-29T04:18:10;7.55;;;4.35;;
46084;SDS011;31823;47.032;8.310;2023-12-29T04:20:35;6.45;;;3.92;;
46084;SDS011;31823;47.032;8.310;2023-12-29T04:23:01;9.50;;;4.28;;
46084;SDS011;31823;47.032;8.310;2023-12-29T04:25:27;8.25;;;5.07;;
46084;SDS011;31823;47.032;8.310;2023-12-29T04:27:53;5.68;;;3.50;;
46084;SDS011;31823;47.032;8.310;2023-12-29T04:30:19;4.88;;;3.63;;
46084;SDS011;31823;47.032;8.310;2023-12-29T04:32:44;5.43;;;3.90;;
46084;SDS011;31823;47.032;8.310;2023-12-29T04:35:10;5.70;;;4.13;;
46084;SDS011;31823;47.032;8.310;2023-12-29T04:37:37;5.80;;;3.90;;
46084;SDS011;31823;47.032;8.310;2023-12-29T04:40:03;6.13;;;3.95;;
46084;SDS011;31823;47.032;8.310;2023-12-29T04:42:30;6.78;;;4.43;;
46084;SDS011;31823;47.032;8.310;2023-12-29T04:44:55;7.68;;;4.00;;
46084;SDS011;31823;47.032;8.310;2023-12-29T04:47:21;8.43;;;4.47;;
46084;SDS011;31823;47.032;8.310;2023-12-29T04:49:47;6.85;;;4.18;;
46084;SDS011;31823;47.032;8.310;2023-12-29T04:52:13;5.88;;;3.80;;
46084;SDS011;31823;47.032;8.310;2023-12-29T04:54:39;7.05;;;4.65;;
46084;SDS011;31823;47.032;8.310;2023-12-29T04:57:04;9.18;;;5.05;;
46084;SDS011;31823;47.032;8.310;2023-12-29T04:59:30;10.63;;;5.60;;
46084;SDS011;31823;47.032;8.310;2023-12-29T05:01:55;6.70;;;4.90;;
46084;SDS011;31823;47.032;8.310;2023-12-29T05:04:21;9.85;;;5.22;;
46084;SDS011;31823;47.032;8.310;2023-12-29T05:06:47;9.27;;;5.40;;
46084;SDS011;31823;47.032;8.310;2023-12-29T05:09:12;5.90;;;4.18;;
46084;SDS011;31823;47.032;8.310;2023-12-29T05:11:38;7.22;;;4.32;;
46084;SDS011;31823;47.032;8.310;2023-12-29T05:14:04;7.25;;;4.75;;
46084;SDS011;31823;47.032;8.310;2023-12-29T05:16:30;7.32;;;4.10;;
46084;SDS011;31823;47.032;8.310;2023-12-29T05:18:56;12.18;;;5.28;;
46084;SDS011;31823;47.032;8.310;2023-12-29T05:21:21;17.50;;;5.22;;
46084;SDS011;31823;47.032;8.310;2023-12-29T05:23:49;7.15;;;5.07;;
46084;SDS011;31823;47.032;8.310;2023-12-29T05:26:15;7.97;;;5.05;;
46084;SDS011;31823;47.032;8.310;2023-12-29T05:28:40;8.18;;;4.72;;
46084;SDS011;31823;47.032;8.310;2023-12-29T05:31:06;7.15;;;4.63;;
46084;SDS011;31823;47.032;8.310;2023-12-29T05:33:32;6.70;;;4.55;;
46084;SDS011;31823;47.032;8.310;2023-12-29T05:35:58;9.70;;;4.05;;
46084;SDS011;31823;47.032;8.310;2023-12-29T05:38:30;7.05;;;4.60;;
46084;SDS011;31823;47.032;8.310;2023-12-29T05:40:56;7.82;;;5.03;;
46084;SDS011;31823;47.032;8.310;2023-12-29T05:43:22;7.90;;;5.13;;
46084;SDS011;31823;47.032;8.310;2023-12-29T05:45:47;7.30;;;4.88;;
46084;SDS011;31823;47.032;8.310;2023-12-29T05:48:13;7.47;;;4.35;;
46084;SDS011;31823;47.032;8.310;2023-12-29T05:50:39;6.28;;;4.65;;
46084;SDS011;31823;47.032;8.310;2023-12-29T05:53:04;7.97;;;5.13;;
46084;SDS011;31823;47.032;8.310;2023-12-29T05:55:31;7.88;;;4.40;;
46084;SDS011;31823;47.032;8.310;2023-12-29T05:57:56;6.35;;;4.30;;
46084;SDS011;31823;47.032;8.310;2023-12-29T06:00:22;7.70;;;4.47;;
46084;SDS011;31823;47.032;8.310;2023-12-29T06:02:47;7.38;;;4.53;;
46084;SDS011;31823;47.032;8.310;2023-12-29T06:05:13;6.72;;;4.40;;
46084;SDS011;31823;47.032;8.310;2023-12-29T06:07:39;7.10;;;4.65;;
46084;SDS011;31823;47.032;8.310;2023-12-29T06:10:05;7.63;;;4.50;;
46084;SDS011;31823;47.032;8.310;2023-12-29T06:12:31;7.93;;;4.50;;
46084;SDS011;31823;47.032;8.310;2023-12-29T06:14:57;6.25;;;3.80;;
46084;SDS011;31823;47.032;8.310;2023-12-29T06:17:22;6.35;;;3.85;;
46084;SDS011;31823;47.032;8.310;2023-12-29T06:19:48;6.43;;;4.18;;
46084;SDS011;31823;47.032;8.310;2023-12-29T06:22:14;8.15;;;4.70;;
46084;SDS011;31823;47.032;8.310;2023-12-29T06:24:40;9.02;;;4.95;;
46084;SDS011;31823;47.032;8.310;2023-12-29T06:27:08;7.63;;;4.85;;
46084;SDS011;31823;47.032;8.310;2023-12-29T06:29:35;6.95;;;3.80;;
46084;SDS011;31823;47.032;8.310;2023-12-29T06:32:01;7.82;;;4.90;;
46084;SDS011;31823;47.032;8.310;2023-12-29T06:34:27;6.07;;;4.80;;
46084;SDS011;31823;47.032;8.310;2023-12-29T06:36:53;5.25;;;3.85;;
46084;SDS011;31823;47.032;8.310;2023-12-29T06:39:19;7.43;;;4.53;;
46084;SDS011;31823;47.032;8.310;2023-12-29T06:41:44;5.28;;;3.80;;
46084;SDS011;31823;47.032;8.310;2023-12-29T06:44:10;7.00;;;4.10;;
46084;SDS011;31823;47.032;8.310;2023-12-29T06:46:38;6.75;;;3.78;;
46084;SDS011;31823;47.032;8.310;2023-12-29T06:49:08;7.90;;;4.55;;
46084;SDS011;31823;47.032;8.310;2023-12-29T06:51:34;6.28;;;4.13;;
46084;SDS011;31823;47.032;8.310;2023-12-29T06:54:00;13.05;;;3.42;;
46084;SDS011;31823;47.032;8.310;2023-12-29T06:56:27;6.28;;;4.43;;
46084;SDS011;31823;47.032;8.310;2023-12-29T06:58:52;5.05;;;3.63;;
46084;SDS011;31823;47.032;8.310;2023-12-29T07:01:18;5.50;;;4.22;;
46084;SDS011;31823;47.032;8.310;2023-12-29T07:03:44;5.95;;;4.07;;
46084;SDS011;31823;47.032;8.310;2023-12-29T07:06:10;7.10;;;3.95;;
46084;SDS011;31823;47.032;8.310;2023-12-29T07:08:36;5.13;;;3.72;;
46084;SDS011;31823;47.032;8.310;2023-12-29T07:11:01;7.18;;;4.05;;
46084;SDS011;31823;47.032;8.310;2023-12-29T07:13:27;5.35;;;3.50;;
46084;SDS011;31823;47.032;8.310;2023-12-29T07:15:53;5.50;;;4.20;;
46084;SDS011;31823;47.032;8.310;2023-12-29T07:18:19;5.45;;;4.03;;
46084;SDS011;31823;47.032;8.310;2023-12-29T07:20:45;4.65;;;3.67;;
46084;SDS011;31823;47.032;8.310;2023-12-29T07:23:11;6.50;;;4.30;;
46084;SDS011;31823;47.032;8.310;2023-12-29T07:25:36;4.90;;;3.88;;
46084;SDS011;31823;47.032;8.310;2023-12-29T07:28:02;5.90;;;4.18;;
46084;SDS011;31823;47.032;8.310;2023-12-29T07:30:28;5.82;;;3.88;;
46084;SDS011;31823;47.032;8.310;2023-12-29T07:32:53;5.90;;;4.20;;
46084;SDS011;31823;47.032;8.310;2023-12-29T07:35:19;5.38;;;4.43;;
46084;SDS011;31823;47.032;8.310;2023-12-29T07:37:45;5.63;;;4.00;;
46084;SDS011;31823;47.032;8.310;2023-12-29T07:40:11;6.55;;;4.65;;
46084;SDS011;31823;47.032;8.310;2023-12-29T07:42:39;5.65;;;3.80;;
46084;SDS011;31823;47.032;8.310;2023-12-29T07:45:05;8.80;;;3.92;;
46084;SDS011;31823;47.032;8.310;2023-12-29T07:47:31;6.82;;;4.32;;
46084;SDS011;31823;47.032;8.310;2023-12-29T07:49:57;6.68;;;4.22;;
46084;SDS011;31823;47.032;8.310;2023-12-29T07:52:23;7.13;;;4.03;;
46084;SDS011;31823;47.032;8.310;2023-12-29T07:54:48;6.82;;;4.25;;
46084;SDS011;31823;47.032;8.310;2023-12-29T07:57:14;8.13;;;4.28;;
46084;SDS011;31823;47.032;8.310;2023-12-29T07:59:40;6.40;;;4.50;;
46084;SDS011;31823;47.032;8.310;2023-12-29T08:02:06;6.80;;;3.92;;
46084;SDS011;31823;47.032;8.310;2023-12-29T08:04:32;6.97;;;4.07;;
46084;SDS011;31823;47.032;8.310;2023-12-29T08:06:57;5.35;;;4.18;;
46084;SDS011;31823;47.032;8.310;2023-12-29T08:09:23;5.95;;;4.07;;
46084;SDS011;31823;47.032;8.310;2023-12-29T08:11:50;5.70;;;3.55;;
46084;SDS011;31823;47.032;8.310;2023-12-29T08:14:15;6.82;;;4.50;;
46084;SDS011;31823;47.032;8.310;2023-12-29T08:16:41;4.10;;;3.40;;
46084;SDS011;31823;47.032;8.310;2023-12-29T08:19:07;5.60;;;4.03;;
46084;SDS011;31823;47.032;8.310;2023-12-29T08:21:33;6.45;;;4.32;;
46084;SDS011;31823;47.032;8.310;2023-12-29T08:23:59;6.40;;;4.30;;
46084;SDS011;31823;47.032;8.310;2023-12-29T08:26:24;5.18;;;3.33;;
46084;SDS011;31823;47.032;8.310;2023-12-29T08:28:51;7.05;;;4.43;;
46084;SDS011;31823;47.032;8.310;2023-12-29T08:31:18;5.30;;;3.80;;
46084;SDS011;31823;47.032;8.310;2023-12-29T08:33:44;5.45;;;4.00;;
46084;SDS011;31823;47.032;8.310;2023-12-29T08:36:11;5.90;;;4.07;;
46084;SDS011;31823;47.032;8.310;2023-12-29T08:38:37;6.25;;;3.92;;
46084;SDS011;31823;47.032;8.310;2023-12-29T08:41:03;6.85;;;4.25;;
46084;SDS011;31823;47.032;8.310;2023-12-29T08:43:29;4.95;;;3.78;;
46084;SDS011;31823;47.032;8.310;2023-12-29T08:45:55;5.95;;;4.05;;
46084;SDS011;31823;47.032;8.310;2023-12-29T08:48:24;7.18;;;4.13;;
46084;SDS011;31823;47.032;8.310;2023-12-29T08:50:50;6.57;;;4.40;;
46084;SDS011;31823;47.032;8.310;2023-12-29T08:53:16;5.82;;;4.00;;
46084;SDS011;31823;47.032;8.310;2023-12-29T08:55:42;5.47;;;4.18;;
46084;SDS011;31823;47.032;8.310;2023-12-29T08:58:07;6.07;;;3.53;;
46084;SDS011;31823;47.032;8.310;2023-12-29T09:00:33;5.10;;;3.63;;
46084;SDS011;31823;47.032;8.310;2023-12-29T09:02:59;5.88;;;4.35;;
46084;SDS011;31823;47.032;8.310;2023-12-29T09:05:25;5.25;;;3.58;;
46084;SDS011;31823;47.032;8.310;2023-12-29T09:07:50;5.57;;;3.75;;
46084;SDS011;31823;47.032;8.310;2023-12-29T09:10:16;4.78;;;3.90;;
46084;SDS011;31823;47.032;8.310;2023-12-29T09:12:41;6.82;;;4.38;;
46084;SDS011;31823;47.032;8.310;2023-12-29T09:15:07;6.10;;;4.00;;
46084;SDS011;31823;47.032;8.310;2023-12-29T09:17:33;6.28;;;4.03;;
46084;SDS011;31823;47.032;8.310;2023-12-29T09:19:59;6.55;;;4.43;;
46084;SDS011;31823;47.032;8.310;2023-12-29T09:22:25;6.55;;;4.15;;
46084;SDS011;31823;47.032;8.310;2023-12-29T09:24:51;9.30;;;3.90;;
46084;SDS011;31823;47.032;8.310;2023-12-29T09:27:17;7.57;;;4.43;;
46084;SDS011;31823;47.032;8.310;2023-12-29T09:29:42;6.60;;;4.55;;
46084;SDS011;31823;47.032;8.310;2023-12-29T09:32:08;8.02;;;4.10;;
46084;SDS011;31823;47.032;8.310;2023-12-29T09:34:34;5.97;;;3.97;;
46084;SDS011;31823;47.032;8.310;2023-12-29T09:36:59;5.90;;;3.63;;
46084;SDS011;31823;47.032;8.310;2023-12-29T09:39:25;10.25;;;3.75;;
46084;SDS011;31823;47.032;8.310;2023-12-29T09:41:51;5.25;;;3.78;;
46084;SDS011;31823;47.032;8.310;2023-12-29T09:44:18;5.22;;;3.85;;
46084;SDS011;31823;47.032;8.310;2023-12-29T09:46:55;5.03;;;3.72;;
46084;SDS011;31823;47.032;8.310;2023-12-29T09:49:27;4.25;;;3.58;;
46084;SDS011;31823;47.032;8.310;2023-12-29T09:51:57;5.75;;;3.60;;
46084;SDS011;31823;47.032;8.310;2023-12-29T09:54:23;5.63;;;4.03;;
46084;SDS011;31823;47.032;8.310;2023-12-29T09:56:49;6.63;;;4.25;;
46084;SDS011;31823;47.032;8.310;2023-12-29T09:59:16;6.05;;;3.70;;
46084;SDS011;31823;47.032;8.310;2023-12-29T10:01:42;7.28;;;4.03;;
46084;SDS011;31823;47.032;8.310;2023-12-29T10:04:10;6.40;;;3.13;;
46084;SDS011;31823;47.032;8.310;2023-12-29T10:06:36;5.22;;;3.75;;
46084;SDS011;31823;47.032;8.310;2023-12-29T10:09:05;5.45;;;4.10;;
46084;SDS011;31823;47.032;8.310;2023-12-29T10:11:35;6.38;;;3.60;;
46084;SDS011;31823;47.032;8.310;2023-12-29T10:14:05;6.15;;;3.65;;
46084;SDS011;31823;47.032;8.310;2023-12-29T10:16:40;5.10;;;3.20;;
46084;SDS011;31823;47.032;8.310;2023-12-29T10:24:22;4.65;;;3.60;;
46084;SDS011;31823;47.032;8.310;2023-12-29T10:26:48;6.93;;;3.85;;
46084;SDS011;31823;47.032;8.310;2023-12-29T10:29:15;5.90;;;4.03;;
46084;SDS011;31823;47.032;8.310;2023-12-29T10:31:43;5.25;;;4.03;;
46084;SDS011;31823;47.032;8.310;2023-12-29T10:34:22;6.25;;;3.97;;
46084;SDS011;31823;47.032;8.310;2023-12-29T10:36:55;7.17;;;4.10;;
46084;SDS011;31823;47.032;8.310;2023-12-29T10:39:21;5.72;;;3.90;;
46084;SDS011;31823;47.032;8.310;2023-12-29T10:41:48;4.88;;;3.63;;
46084;SDS011;31823;47.032;8.310;2023-12-29T10:44:15;5.15;;;3.22;;
46084;SDS011;31823;47.032;8.310;2023-12-29T10:46:41;6.85;;;3.78;;
46084;SDS011;31823;47.032;8.310;2023-12-29T10:49:07;5.82;;;3.35;;
46084;SDS011;31823;47.032;8.310;2023-12-29T10:51:37;5.25;;;3.72;;
46084;SDS011;31823;47.032;8.310;2023-12-29T10:54:03;5.05;;;4.22;;
46084;SDS011;31823;47.032;8.310;2023-12-29T10:56:30;6.03;;;3.85;;
46084;SDS011;31823;47.032;8.310;2023-12-29T10:59:05;6.15;;;3.45;;
46084;SDS011;31823;47.032;8.310;2023-12-29T11:01:33;4.72;;;3.30;;
46084;SDS011;31823;47.032;8.310;2023-12-29T11:06:28;3.58;;;2.85;;
46084;SDS011;31823;47.032;8.310;2023-12-29T11:08:55;4.50;;;3.65;;
46084;SDS011;31823;47.032;8.310;2023-12-29T11:11:22;3.65;;;3.00;;
46084;SDS011;31823;47.032;8.310;2023-12-29T11:13:48;3.78;;;2.90;;
46084;SDS011;31823;47.032;8.310;2023-12-29T11:16:14;4.80;;;2.80;;
46084;SDS011;31823;47.032;8.310;2023-12-29T11:18:46;3.63;;;3.08;;
46084;SDS011;31823;47.032;8.310;2023-12-29T11:21:14;4.05;;;3.30;;
46084;SDS011;31823;47.032;8.310;2023-12-29T11:23:42;3.38;;;2.60;;
46084;SDS011;31823;47.032;8.310;2023-12-29T11:26:07;4.82;;;3.38;;
46084;SDS011;31823;47.032;8.310;2023-12-29T11:28:33;3.67;;;2.80;;
46084;SDS011;31823;47.032;8.310;2023-12-29T11:31:00;4.85;;;3.03;;
46084;SDS011;31823;47.032;8.310;2023-12-29T11:33:34;4.32;;;3.05;;
46084;SDS011;31823;47.032;8.310;2023-12-29T11:36:16;5.43;;;2.95;;
46084;SDS011;31823;47.032;8.310;2023-12-29T11:44:08;3.30;;;2.72;;
46084;SDS011;31823;47.032;8.310;2023-12-29T11:46:37;4.50;;;2.65;;
46084;SDS011;31823;47.032;8.310;2023-12-29T11:49:04;4.22;;;3.00;;
46084;SDS011;31823;47.032;8.310;2023-12-29T11:51:34;5.80;;;3.03;;
46084;SDS011;31823;47.032;8.310;2023-12-29T11:54:09;3.35;;;2.88;;
46084;SDS011;31823;47.032;8.310;2023-12-29T11:59:15;4.77;;;2.70;;
46084;SDS011;31823;47.032;8.310;2023-12-29T12:01:42;3.30;;;2.85;;
46084;SDS011;31823;47.032;8.310;2023-12-29T12:04:33;3.33;;;2.75;;
46084;SDS011;31823;47.032;8.310;2023-12-29T12:07:06;3.47;;;2.80;;
46084;SDS011;31823;47.032;8.310;2023-12-29T12:09:33;3.97;;;2.85;;
46084;SDS011;31823;47.032;8.310;2023-12-29T12:12:00;4.40;;;3.00;;
46084;SDS011;31823;47.032;8.310;2023-12-29T12:14:47;4.00;;;3.08;;
46084;SDS011;31823;47.032;8.310;2023-12-29T12:17:26;4.22;;;2.97;;
46084;SDS011;31823;47.032;8.310;2023-12-29T12:19:56;3.55;;;2.75;;
46084;SDS011;31823;47.032;8.310;2023-12-29T12:22:23;4.97;;;2.92;;
46084;SDS011;31823;47.032;8.310;2023-12-29T12:24:50;4.22;;;3.10;;
46084;SDS011;31823;47.032;8.310;2023-12-29T12:27:22;4.20;;;3.08;;
46084;SDS011;31823;47.032;8.310;2023-12-29T12:29:51;3.15;;;2.63;;
46084;SDS011;31823;47.032;8.310;2023-12-29T12:32:20;3.35;;;2.75;;
46084;SDS011;31823;47.032;8.310;2023-12-29T12:34:46;2.95;;;2.60;;
46084;SDS011;31823;47.032;8.310;2023-12-29T12:37:12;6.65;;;3.00;;
46084;SDS011;31823;47.032;8.310;2023-12-29T12:39:43;3.28;;;2.40;;
46084;SDS011;31823;47.032;8.310;2023-12-29T12:42:08;3.60;;;2.42;;
46084;SDS011;31823;47.032;8.310;2023-12-29T12:44:35;4.38;;;2.85;;
46084;SDS011;31823;47.032;8.310;2023-12-29T12:47:06;2.40;;;2.03;;
46084;SDS011;31823;47.032;8.310;2023-12-29T12:49:34;4.05;;;3.03;;
46084;SDS011;31823;47.032;8.310;2023-12-29T12:52:01;4.07;;;2.90;;
46084;SDS011;31823;47.032;8.310;2023-12-29T12:54:27;3.33;;;2.35;;
46084;SDS011;31823;47.032;8.310;2023-12-29T12:56:53;3.80;;;2.40;;
46084;SDS011;31823;47.032;8.310;2023-12-29T12:59:19;2.53;;;2.10;;
46084;SDS011;31823;47.032;8.310;2023-12-29T13:01:46;4.60;;;2.78;;
46084;SDS011;31823;47.032;8.310;2023-12-29T13:04:12;4.97;;;2.65;;
46084;SDS011;31823;47.032;8.310;2023-12-29T13:06:39;7.03;;;3.95;;
46084;SDS011;31823;47.032;8.310;2023-12-29T13:09:06;3.72;;;2.90;;
46084;SDS011;31823;47.032;8.310;2023-12-29T13:11:36;12.55;;;6.55;;
46084;SDS011;31823;47.032;8.310;2023-12-29T13:14:02;4.45;;;2.90;;
46084;SDS011;31823;47.032;8.310;2023-12-29T13:16:33;5.30;;;3.33;;
46084;SDS011;31823;47.032;8.310;2023-12-29T13:19:22;3.53;;;3.15;;
46084;SDS011;31823;47.032;8.310;2023-12-29T13:21:55;3.70;;;2.63;;
46084;SDS011;31823;47.032;8.310;2023-12-29T13:24:21;3.85;;;2.60;;
46084;SDS011;31823;47.032;8.310;2023-12-29T13:26:47;4.20;;;2.80;;
46084;SDS011;31823;47.032;8.310;2023-12-29T13:29:19;4.07;;;2.78;;
46084;SDS011;31823;47.032;8.310;2023-12-29T13:31:47;3.03;;;2.70;;
46084;SDS011;31823;47.032;8.310;2023-12-29T13:34:16;5.75;;;2.65;;
46084;SDS011;31823;47.032;8.310;2023-12-29T13:36:53;3.83;;;2.47;;
46084;SDS011;31823;47.032;8.310;2023-12-29T13:41:57;2.63;;;2.10;;
46084;SDS011;31823;47.032;8.310;2023-12-29T13:44:24;2.22;;;2.03;;
46084;SDS011;31823;47.032;8.310;2023-12-29T13:46:52;4.60;;;2.45;;
46084;SDS011;31823;47.032;8.310;2023-12-29T13:49:19;3.65;;;2.42;;
46084;SDS011;31823;47.032;8.310;2023-12-29T13:51:45;2.63;;;2.38;;
46084;SDS011;31823;47.032;8.310;2023-12-29T13:54:11;3.13;;;2.63;;
46084;SDS011;31823;47.032;8.310;2023-12-29T13:56:37;8.05;;;2.80;;
46084;SDS011;31823;47.032;8.310;2023-12-29T13:59:04;3.78;;;2.53;;
46084;SDS011;31823;47.032;8.310;2023-12-29T14:01:38;4.00;;;2.80;;
46084;SDS011;31823;47.032;8.310;2023-12-29T14:04:06;5.43;;;2.55;;
46084;SDS011;31823;47.032;8.310;2023-12-29T14:07:08;3.00;;;2.15;;
46084;SDS011;31823;47.032;8.310;2023-12-29T14:09:27;5.57;;;2.85;;
46084;SDS011;31823;47.032;8.310;2023-12-29T14:11:53;4.95;;;3.08;;
46084;SDS011;31823;47.032;8.310;2023-12-29T14:14:22;3.65;;;2.70;;
46084;SDS011;31823;47.032;8.310;2023-12-29T14:16:49;5.35;;;2.67;;
46084;SDS011;31823;47.032;8.310;2023-12-29T14:19:16;3.60;;;2.40;;
46084;SDS011;31823;47.032;8.310;2023-12-29T14:21:43;4.55;;;2.63;;
46084;SDS011;31823;47.032;8.310;2023-12-29T14:24:15;3.72;;;2.35;;
46084;SDS011;31823;47.032;8.310;2023-12-29T14:29:19;3.67;;;2.28;;
46084;SDS011;31823;47.032;8.310;2023-12-29T14:31:46;2.67;;;2.30;;
46084;SDS011;31823;47.032;8.310;2023-12-29T14:34:18;3.30;;;2.40;;
46084;SDS011;31823;47.032;8.310;2023-12-29T14:36:44;4.03;;;2.55;;
46084;SDS011;31823;47.032;8.310;2023-12-29T14:39:11;4.53;;;2.72;;
46084;SDS011;31823;47.032;8.310;2023-12-29T14:41:37;4.10;;;2.75;;
46084;SDS011;31823;47.032;8.310;2023-12-29T14:44:03;3.10;;;2.60;;
46084;SDS011;31823;47.032;8.310;2023-12-29T14:46:29;3.53;;;2.15;;
46084;SDS011;31823;47.032;8.310;2023-12-29T14:48:56;3.33;;;2.03;;
46084;SDS011;31823;47.032;8.310;2023-12-29T14:51:23;3.00;;;2.67;;
46084;SDS011;31823;47.032;8.310;2023-12-29T14:53:49;3.40;;;2.42;;
46084;SDS011;31823;47.032;8.310;2023-12-29T14:56:15;4.30;;;2.22;;
46084;SDS011;31823;47.032;8.310;2023-12-29T14:58:42;3.83;;;2.63;;
46084;SDS011;31823;47.032;8.310;2023-12-29T15:01:08;5.88;;;2.55;;
46084;SDS011;31823;47.032;8.310;2023-12-29T15:03:34;3.65;;;2.08;;
46084;SDS011;31823;47.032;8.310;2023-12-29T15:06:00;3.80;;;2.40;;
46084;SDS011;31823;47.032;8.310;2023-12-29T15:08:27;2.95;;;2.35;;
46084;SDS011;31823;47.032;8.310;2023-12-29T15:10:59;3.28;;;2.40;;
46084;SDS011;31823;47.032;8.310;2023-12-29T15:13:28;2.58;;;2.15;;